Time;durP1;ratioP1;P1;durP2;ratioP2;P2;SDS_P1;SDS_P2;PMS_P1;PMS_P2;Temp;Humidity;BMP_temperature;BMP_pressure;BME280_temperature;BME280_humidity;BME280_pressure;Samples;Min_cycle;Max_cycle;Signal;HPM_P1;HPM_P2
2021/06/06 00:00:40;;;;;;;42.42;38.17;;;16.50;83.80;;;;;;4993255;28;20043;-87
2021/06/06 00:03:13;;;;;;;42.72;38.17;;;16.50;83.80;;;;;;4993988;28;20121;-84
2021/06/06 00:05:46;;;;;;;41.80;36.42;;;16.50;83.80;;;;;;4993317;28;20054;-87
2021/06/06 00:08:12;;;;;;;41.58;37.30;;;16.50;83.90;;;;;;4994318;28;20046;-85
2021/06/06 00:10:37;;;;;;;41.47;37.33;;;16.50;84.00;;;;;;4996150;28;20050;-86
2021/06/06 00:13:03;;;;;;;43.50;38.45;;;16.40;84.70;;;;;;4993613;28;20200;-84
2021/06/06 00:15:29;;;;;;;42.05;37.55;;;16.40;84.10;;;;;;4993743;28;20403;-85
2021/06/06 00:17:55;;;;;;;47.63;42.72;;;16.40;84.10;;;;;;4993024;28;20059;-86
2021/06/06 00:20:21;;;;;;;45.03;40.20;;;16.40;84.20;;;;;;4993481;28;20062;-86
2021/06/06 00:22:47;;;;;;;44.22;39.53;;;16.40;84.20;;;;;;4998281;28;20073;-84
2021/06/06 00:25:13;;;;;;;45.67;40.75;;;16.40;84.30;;;;;;5013408;28;20049;-85
2021/06/06 00:27:39;;;;;;;46.08;41.33;;;16.40;84.30;;;;;;4979847;28;20116;-84
2021/06/06 00:30:06;;;;;;;45.03;40.33;;;16.40;84.30;;;;;;4996364;28;20041;-86
2021/06/06 00:32:32;;;;;;;47.50;42.60;;;16.40;84.40;;;;;;5012775;28;20470;-85
2021/06/06 00:34:58;;;;;;;46.45;41.58;;;16.40;84.40;;;;;;5013273;28;20069;-86
2021/06/06 00:37:26;;;;;;;45.85;41.10;;;16.40;84.40;;;;;;5013302;28;20080;-86
2021/06/06 00:39:52;;;;;;;46.80;41.85;;;16.40;84.40;;;;;;5012888;28;20403;-85
2021/06/06 00:42:19;;;;;;;45.92;41.20;;;16.30;84.30;;;;;;5014358;28;20041;-87
2021/06/06 00:44:44;;;;;;;43.95;39.50;;;16.30;84.30;;;;;;4997690;28;20046;-87
2021/06/06 00:47:11;;;;;;;44.78;39.92;;;16.30;84.20;;;;;;4996887;28;20073;-86
2021/06/06 00:49:37;;;;;;;45.20;39.25;;;16.30;84.30;;;;;;4996986;28;20053;-86
2021/06/06 00:52:03;;;;;;;46.30;41.40;;;16.30;84.30;;;;;;5015620;28;20097;-87
2021/06/06 00:54:38;;;;;;;42.25;37.67;;;16.30;84.30;;;;;;4996789;28;20156;-87
2021/06/06 00:57:14;;;;;;;46.78;38.78;;;16.30;84.30;;;;;;5014453;28;20501;-85
2021/06/06 00:59:42;;;;;;;41.55;37.28;;;16.30;84.40;;;;;;5013711;28;20148;-84
2021/06/06 01:02:08;;;;;;;44.13;39.33;;;16.30;84.30;;;;;;4996610;28;20046;-84
2021/06/06 01:04:35;;;;;;;39.47;35.45;;;16.30;84.30;;;;;;5029245;28;20478;-87
2021/06/06 01:07:01;;;;;;;41.00;36.67;;;16.30;84.30;;;;;;5013555;28;20193;-87
2021/06/06 01:09:27;;;;;;;40.38;35.80;;;16.30;84.30;;;;;;5013506;28;20046;-87
2021/06/06 01:12:26;;;;;;;39.03;35.17;;;16.20;84.20;;;;;;5012569;28;20038;-85
2021/06/06 01:15:16;;;;;;;40.47;36.30;;;16.20;84.20;;;;;;4999096;28;20506;-87
2021/06/06 01:18:12;;;;;;;39.83;35.33;;;16.30;84.30;;;;;;4997635;28;20127;-86
2021/06/06 01:20:53;;;;;;;42.10;37.65;;;16.30;84.30;;;;;;5007410;28;20058;-87
2021/06/06 01:23:37;;;;;;;40.30;36.22;;;16.20;84.20;;;;;;4992171;28;20046;-86
2021/06/06 01:26:07;;;;;;;40.80;36.55;;;16.20;84.20;;;;;;4992367;28;20046;-84
2021/06/06 01:28:51;;;;;;;39.88;35.88;;;16.20;84.20;;;;;;4975626;28;20054;-88
2021/06/06 01:31:19;;;;;;;38.03;34.22;;;16.20;84.10;;;;;;4994029;28;20533;-85
2021/06/06 01:33:51;;;;;;;40.20;35.85;;;16.20;84.20;;;;;;4975773;28;20046;-84
2021/06/06 01:36:23;;;;;;;38.28;34.28;;;16.20;84.20;;;;;;4976413;28;20046;-86
2021/06/06 01:39:06;;;;;;;39.13;35.17;;;16.20;84.20;;;;;;4975529;28;20054;-85
2021/06/06 01:41:36;;;;;;;38.08;34.17;;;16.20;84.20;;;;;;4991446;28;20146;-87
2021/06/06 01:44:07;;;;;;;38.95;34.80;;;16.20;84.30;;;;;;4976291;28;20133;-85
2021/06/06 01:46:46;;;;;;;38.85;34.90;;;16.20;84.20;;;;;;4975537;28;20153;-85
2021/06/06 01:49:13;;;;;;;38.33;34.40;;;16.20;84.30;;;;;;4975179;28;20487;-84
2021/06/06 01:51:40;;;;;;;37.90;34.28;;;16.20;84.20;;;;;;4975257;28;20129;-87
2021/06/06 01:54:07;;;;;;;36.97;33.47;;;16.20;84.30;;;;;;4975530;28;20403;-85
2021/06/06 01:56:37;;;;;;;37.58;33.90;;;16.20;84.30;;;;;;4975361;28;20121;-86
2021/06/06 01:59:11;;;;;;;37.33;33.60;;;16.20;84.30;;;;;;4975355;28;20050;-85
2021/06/06 02:01:40;;;;;;;37.50;33.70;;;16.20;84.30;;;;;;4976166;28;20046;-86
2021/06/06 02:04:05;;;;;;;37.53;33.67;;;16.20;84.20;;;;;;4976161;28;20129;-85
2021/06/06 02:06:35;;;;;;;38.15;34.38;;;16.20;84.20;;;;;;4943204;28;20053;-86
2021/06/06 02:09:04;;;;;;;37.08;33.50;;;16.20;84.20;;;;;;4975636;28;20412;-86
2021/06/06 02:11:37;;;;;;;37.22;33.45;;;16.20;84.20;;;;;;4975788;28;20061;-84
2021/06/06 02:14:05;;;;;;;37.97;34.17;;;16.20;84.30;;;;;;4975812;28;20085;-85
2021/06/06 02:16:39;;;;;;;38.17;34.45;;;16.20;84.40;;;;;;4975675;28;20125;-85
2021/06/06 02:19:05;;;;;;;37.35;33.97;;;16.20;84.30;;;;;;4996458;28;20058;-85
2021/06/06 02:21:31;;;;;;;37.13;33.65;;;16.20;84.30;;;;;;5011632;28;20041;-86
2021/06/06 02:24:04;;;;;;;37.15;33.65;;;16.20;84.30;;;;;;5011390;28;20042;-85
2021/06/06 02:26:51;;;;;;;37.42;33.78;;;16.20;84.30;;;;;;4995530;28;20116;-85
2021/06/06 02:29:27;;;;;;;37.05;33.40;;;16.20;84.30;;;;;;5012910;28;20052;-86
2021/06/06 02:31:58;;;;;;;38.80;35.20;;;16.20;84.30;;;;;;4994718;28;20042;-85
2021/06/06 02:34:43;;;;;;;35.47;31.98;;;16.10;84.20;;;;;;5012821;28;20120;-84
2021/06/06 02:37:13;;;;;;;36.08;32.67;;;16.10;84.20;;;;;;4996041;28;20042;-87
2021/06/06 02:39:39;;;;;;;36.38;32.83;;;16.10;84.20;;;;;;4998578;28;20049;-86
2021/06/06 02:42:19;;;;;;;34.30;30.83;;;16.10;84.20;;;;;;4998981;28;20100;-86
2021/06/06 02:45:16;;;;;;;36.90;33.28;;;16.10;84.20;;;;;;5014558;28;20132;-86
2021/06/06 02:47:42;;;;;;;36.35;32.95;;;16.10;84.10;;;;;;5014661;28;20491;-86
2021/06/06 02:50:13;;;;;;;35.08;31.70;;;16.10;84.00;;;;;;4999762;28;20053;-85
2021/06/06 02:52:47;;;;;;;35.75;32.17;;;16.10;84.00;;;;;;5015507;28;20038;-87
2021/06/06 02:55:24;;;;;;;36.50;32.80;;;16.10;84.00;;;;;;5000061;28;20061;-87
2021/06/06 02:57:57;;;;;;;36.00;32.17;;;16.10;84.00;;;;;;4998433;28;20038;-86
2021/06/06 03:00:30;;;;;;;36.45;32.55;;;16.10;84.00;;;;;;5002741;28;20048;-86
2021/06/06 03:03:15;;;;;;;35.90;32.28;;;16.10;84.00;;;;;;5005126;28;20044;-84
2021/06/06 03:05:42;;;;;;;36.20;32.78;;;16.10;84.00;;;;;;5007872;28;20046;-85
2021/06/06 03:08:09;;;;;;;33.92;30.55;;;16.10;84.00;;;;;;5005893;28;20053;-86
2021/06/06 03:10:36;;;;;;;36.20;32.65;;;16.10;84.10;;;;;;5021621;28;20045;-84
2021/06/06 03:13:05;;;;;;;35.85;32.17;;;16.10;84.10;;;;;;5005169;28;20074;-87
2021/06/06 03:15:34;;;;;;;37.55;34.05;;;16.10;84.10;;;;;;5006056;28;20128;-85
2021/06/06 03:18:00;;;;;;;34.92;31.23;;;16.10;84.10;;;;;;5005729;28;20046;-86
2021/06/06 03:20:46;;;;;;;35.67;31.98;;;16.00;84.10;;;;;;5001529;28;20057;-85
2021/06/06 03:23:14;;;;;;;36.05;32.55;;;16.10;84.10;;;;;;4985761;28;20034;-86
2021/06/06 03:25:52;;;;;;;35.38;31.73;;;16.00;84.10;;;;;;4985704;28;20058;-86
2021/06/06 03:28:20;;;;;;;36.22;32.67;;;16.10;84.20;;;;;;4985204;28;20053;-85
2021/06/06 03:30:53;;;;;;;34.90;31.10;;;16.10;84.20;;;;;;4984949;28;20113;-85
2021/06/06 03:33:30;;;;;;;34.83;31.23;;;16.00;84.10;;;;;;4985065;28;20129;-86
2021/06/06 03:35:56;;;;;;;35.70;32.15;;;16.00;84.10;;;;;;4985854;28;20053;-86
2021/06/06 03:38:21;;;;;;;34.35;30.92;;;16.00;84.10;;;;;;5001654;28;20125;-84
2021/06/06 03:40:47;;;;;;;36.28;32.58;;;16.00;84.20;;;;;;5002288;28;20038;-87
2021/06/06 03:43:17;;;;;;;36.00;32.38;;;16.10;84.20;;;;;;5001667;28;20045;-86
2021/06/06 03:45:42;;;;;;;36.67;32.97;;;16.00;84.30;;;;;;5001540;28;20042;-86
2021/06/06 03:48:08;;;;;;;39.13;34.90;;;16.00;84.30;;;;;;4984113;28;20046;-85
2021/06/06 03:50:35;;;;;;;37.03;33.45;;;16.10;84.40;;;;;;5000781;28;20058;-85
2021/06/06 03:53:00;;;;;;;35.10;31.50;;;16.00;85.10;;;;;;4968699;28;20406;-85
2021/06/06 03:55:26;;;;;;;39.20;34.80;;;16.00;84.40;;;;;;5000893;28;20125;-84
2021/06/06 03:57:52;;;;;;;35.85;32.15;;;16.00;84.40;;;;;;5000500;28;20113;-84
2021/06/06 04:00:24;;;;;;;36.15;32.53;;;16.10;84.50;;;;;;4985046;28;20046;-85
2021/06/06 04:02:50;;;;;;;37.30;33.50;;;16.00;84.50;;;;;;4984851;28;20053;-86
2021/06/06 04:05:16;;;;;;;34.55;31.17;;;16.00;84.50;;;;;;5001043;28;20504;-87
2021/06/06 04:07:42;;;;;;;38.05;33.65;;;16.00;84.50;;;;;;4985012;28;20046;-87
2021/06/06 04:10:08;;;;;;;36.88;33.20;;;16.10;84.60;;;;;;4984488;28;20050;-85
2021/06/06 04:12:34;;;;;;;34.50;30.90;;;16.00;84.60;;;;;;4984795;28;20050;-85
2021/06/06 04:14:59;;;;;;;35.83;32.42;;;16.10;84.60;;;;;;4984399;28;20046;-85
2021/06/06 04:17:26;;;;;;;34.28;30.67;;;16.10;84.60;;;;;;5001374;28;20058;-86
2021/06/06 04:19:53;;;;;;;35.88;32.13;;;16.10;84.60;;;;;;4995599;28;20057;-86
2021/06/06 04:22:19;;;;;;;36.92;33.25;;;16.10;84.70;;;;;;5022032;28;20132;-87
2021/06/06 04:24:45;;;;;;;35.67;31.83;;;16.10;84.70;;;;;;5020717;28;20065;-85
2021/06/06 04:27:11;;;;;;;34.78;31.13;;;16.10;84.70;;;;;;5021735;28;20105;-87
2021/06/06 04:29:37;;;;;;;34.40;31.00;;;16.10;84.70;;;;;;5020608;28;20070;-87
2021/06/06 04:32:04;;;;;;;36.33;32.42;;;16.10;84.70;;;;;;5003472;28;20383;-87
2021/06/06 04:34:34;;;;;;;35.70;31.95;;;16.10;84.70;;;;;;5021026;28;20124;-86
2021/06/06 04:37:00;;;;;;;34.03;30.35;;;16.10;84.70;;;;;;5003585;28;20383;-85
2021/06/06 04:39:26;;;;;;;34.25;30.65;;;16.10;84.60;;;;;;5003685;28;20050;-83
2021/06/06 04:41:51;;;;;;;34.70;31.02;;;16.10;84.60;;;;;;5019798;28;20038;-84
2021/06/06 04:44:17;;;;;;;35.65;31.85;;;16.10;84.60;;;;;;5017791;28;20042;-86
2021/06/06 04:46:45;;;;;;;34.78;31.00;;;16.10;84.60;;;;;;5003847;28;20042;-87
2021/06/06 04:49:11;;;;;;;33.70;30.08;;;16.10;84.60;;;;;;5019189;28;20141;-87
2021/06/06 04:51:37;;;;;;;33.83;30.33;;;16.20;84.70;;;;;;5020897;28;20069;-87
2021/06/06 04:54:03;;;;;;;31.80;28.15;;;16.20;84.60;;;;;;5019040;28;20096;-87
2021/06/06 04:56:29;;;;;;;32.60;29.40;;;16.20;84.50;;;;;;5003004;28;20105;-87
2021/06/06 04:58:56;;;;;;;31.55;28.30;;;16.20;84.40;;;;;;5018962;28;20064;-85
2021/06/06 05:01:24;;;;;;;31.85;28.38;;;16.20;84.30;;;;;;5019071;28;20054;-85
2021/06/06 05:03:50;;;;;;;31.67;28.27;;;16.20;84.20;;;;;;5019127;28;20050;-85
2021/06/06 05:06:16;;;;;;;30.50;27.27;;;16.30;84.20;;;;;;5035190;28;20050;-85
2021/06/06 05:08:42;;;;;;;29.98;26.63;;;16.30;84.00;;;;;;5019331;28;20136;-85
2021/06/06 05:11:08;;;;;;;30.42;24.88;;;16.30;83.90;;;;;;5002620;28;20104;-85
2021/06/06 05:13:34;;;;;;;30.15;26.25;;;16.30;83.70;;;;;;5002860;28;20129;-85
2021/06/06 05:16:00;;;;;;;29.98;26.88;;;16.30;83.60;;;;;;5018634;28;20072;-85
2021/06/06 05:18:26;;;;;;;28.42;25.45;;;16.30;83.60;;;;;;5019630;28;20078;-84
2021/06/06 05:20:53;;;;;;;27.67;24.83;;;16.30;83.60;;;;;;4997042;28;20089;-86
2021/06/06 05:23:19;;;;;;;30.55;26.67;;;16.30;83.50;;;;;;4982976;28;20050;-85
2021/06/06 05:25:46;;;;;;;26.80;23.90;;;16.30;83.60;;;;;;4999317;28;20077;-84
2021/06/06 05:28:15;;;;;;;27.55;24.60;;;16.30;83.40;;;;;;4998906;28;20407;-85
2021/06/06 05:30:41;;;;;;;25.90;23.38;;;16.30;83.40;;;;;;5000931;28;20046;-86
2021/06/06 05:33:07;;;;;;;24.17;21.67;;;16.30;83.30;;;;;;4999516;28;20484;-85
2021/06/06 05:35:41;;;;;;;27.05;23.20;;;16.30;83.20;;;;;;5000146;28;20073;-84
2021/06/06 05:38:08;;;;;;;24.85;22.25;;;16.30;83.10;;;;;;4998614;28;20046;-84
2021/06/06 05:40:34;;;;;;;26.30;23.60;;;16.30;83.10;;;;;;4983452;28;20049;-87
2021/06/06 05:43:02;;;;;;;24.77;21.98;;;16.30;83.10;;;;;;5000437;28;20042;-84
2021/06/06 05:45:28;;;;;;;24.20;21.02;;;16.30;83.10;;;;;;5002222;28;20476;-84
2021/06/06 05:47:54;;;;;;;22.98;20.58;;;16.30;83.20;;;;;;4986124;28;20050;-83
2021/06/06 05:50:22;;;;;;;22.80;20.33;;;16.30;83.20;;;;;;5000693;28;20096;-86
2021/06/06 05:52:50;;;;;;;21.17;18.88;;;16.30;83.20;;;;;;4967980;28;20122;-84
2021/06/06 05:55:17;;;;;;;21.77;19.38;;;16.30;83.10;;;;;;4983152;28;20066;-84
2021/06/06 05:57:43;;;;;;;21.15;18.88;;;16.30;83.00;;;;;;4967127;28;20145;-83
2021/06/06 06:00:14;;;;;;;23.52;18.70;;;16.40;83.00;;;;;;5000580;28;20095;-86
2021/06/06 06:02:40;;;;;;;22.60;18.48;;;16.40;82.90;;;;;;4983627;28;20050;-85
2021/06/06 06:05:06;;;;;;;28.40;21.67;;;16.40;82.90;;;;;;5000715;28;20050;-86
2021/06/06 06:07:32;;;;;;;21.05;18.20;;;16.40;82.90;;;;;;4999813;28;20038;-87
2021/06/06 06:09:58;;;;;;;22.75;20.35;;;16.40;82.80;;;;;;4983406;28;20057;-86
2021/06/06 06:12:24;;;;;;;22.15;19.77;;;16.50;82.70;;;;;;4997427;28;20051;-86
2021/06/06 06:14:52;;;;;;;22.73;18.75;;;16.50;82.70;;;;;;4999096;28;20125;-86
2021/06/06 06:17:18;;;;;;;21.58;18.75;;;16.50;82.70;;;;;;4998354;28;20495;-85
2021/06/06 06:19:43;;;;;;;20.15;17.77;;;16.50;82.60;;;;;;5016375;28;20046;-86
2021/06/06 06:22:09;;;;;;;21.88;18.67;;;16.60;82.50;;;;;;5021633;28;20114;-86
2021/06/06 06:24:35;;;;;;;23.05;19.08;;;16.60;82.50;;;;;;5022182;28;20095;-85
2021/06/06 06:27:02;;;;;;;23.02;18.88;;;16.60;82.40;;;;;;5038229;28;20038;-83
2021/06/06 06:29:28;;;;;;;21.60;19.27;;;16.60;82.30;;;;;;5004960;28;20076;-87
2021/06/06 06:31:54;;;;;;;23.20;19.63;;;16.60;82.40;;;;;;5022056;28;20041;-85
2021/06/06 06:34:22;;;;;;;21.88;19.35;;;16.60;82.40;;;;;;5021585;28;20564;-86
2021/06/06 06:36:48;;;;;;;22.13;19.23;;;16.60;82.50;;;;;;4988347;28;20045;-85
2021/06/06 06:39:14;;;;;;;23.40;19.17;;;16.70;82.60;;;;;;5021488;28;20042;-87
2021/06/06 06:41:40;;;;;;;20.58;17.27;;;16.60;82.70;;;;;;5005011;28;20049;-87
2021/06/06 06:44:06;;;;;;;20.48;18.15;;;16.60;82.80;;;;;;5021141;28;20092;-86
2021/06/06 06:46:31;;;;;;;19.65;16.88;;;16.60;82.70;;;;;;5021163;28;20489;-85
2021/06/06 06:48:57;;;;;;;20.52;18.10;;;16.60;82.70;;;;;;5005395;28;20109;-87
2021/06/06 06:51:24;;;;;;;19.48;17.35;;;16.60;82.60;;;;;;5021200;28;20053;-85
2021/06/06 06:53:54;;;;;;;20.80;18.50;;;16.60;82.50;;;;;;5005462;28;20044;-86
2021/06/06 06:56:29;;;;;;;20.95;18.70;;;16.70;82.50;;;;;;5006265;28;20053;-83
2021/06/06 06:58:55;;;;;;;20.45;18.35;;;16.70;82.50;;;;;;5003526;28;20053;-86
2021/06/06 07:01:21;;;;;;;21.25;18.52;;;16.70;82.20;;;;;;5018441;28;20054;-83
2021/06/06 07:03:49;;;;;;;23.20;20.13;;;16.70;82.20;;;;;;5020988;28;20116;-86
2021/06/06 07:06:15;;;;;;;21.85;19.40;;;16.70;82.30;;;;;;5004323;28;20038;-87
2021/06/06 07:08:42;;;;;;;21.88;19.58;;;16.70;82.10;;;;;;5020917;28;20056;-88
2021/06/06 07:11:10;;;;;;;23.17;20.85;;;16.80;82.10;;;;;;5019273;28;20068;-85
2021/06/06 07:13:36;;;;;;;23.85;20.75;;;16.80;82.10;;;;;;5003062;28;20041;-86
2021/06/06 07:16:03;;;;;;;22.70;20.25;;;16.80;82.10;;;;;;5019455;28;20143;-87
2021/06/06 07:18:29;;;;;;;23.77;21.27;;;16.80;81.90;;;;;;5018772;28;20042;-87
2021/06/06 07:20:57;;;;;;;24.35;21.25;;;16.80;82.00;;;;;;5001980;28;20080;-86
2021/06/06 07:23:23;;;;;;;24.42;21.83;;;16.80;82.10;;;;;;5020560;28;20041;-86
2021/06/06 07:25:49;;;;;;;24.70;22.10;;;16.80;82.10;;;;;;4990035;28;20042;-86
2021/06/06 07:28:22;;;;;;;26.80;23.10;;;16.80;82.00;;;;;;4989960;28;20120;-86
2021/06/06 07:30:51;;;;;;;25.10;22.50;;;16.80;82.10;;;;;;4991142;28;20045;-84
2021/06/06 07:33:20;;;;;;;25.92;21.92;;;16.90;82.00;;;;;;5022109;28;20100;-87
2021/06/06 07:35:45;;;;;;;25.10;22.45;;;16.90;81.90;;;;;;5006975;28;20073;-86
2021/06/06 07:38:31;;;;;;;24.08;21.50;;;16.90;81.80;;;;;;5024991;28;20079;-84
2021/06/06 07:40:58;;;;;;;24.17;21.67;;;16.90;81.60;;;;;;5022378;28;20042;-87
2021/06/06 07:43:24;;;;;;;25.45;22.52;;;16.90;81.60;;;;;;5006207;28;20042;-86
2021/06/06 07:45:53;;;;;;;24.33;21.75;;;16.90;81.50;;;;;;5022293;28;20474;-86
2021/06/06 07:48:23;;;;;;;25.05;22.35;;;16.90;81.40;;;;;;5021559;28;20049;-84
2021/06/06 07:50:52;;;;;;;23.10;20.67;;;17.00;81.40;;;;;;5020694;28;20041;-86
2021/06/06 07:53:18;;;;;;;23.15;19.85;;;17.00;81.20;;;;;;5005789;28;20046;-86
2021/06/06 07:55:50;;;;;;;22.02;19.65;;;17.00;81.10;;;;;;4989795;28;20065;-88
2021/06/06 07:58:19;;;;;;;22.80;20.48;;;17.10;81.00;;;;;;5004719;28;20128;-88
2021/06/06 08:00:45;;;;;;;21.88;19.67;;;17.10;81.00;;;;;;5004562;28;20045;-86
2021/06/06 08:03:11;;;;;;;23.63;20.98;;;17.10;81.00;;;;;;5004625;28;20128;-87
2021/06/06 08:05:39;;;;;;;23.63;21.13;;;17.10;81.00;;;;;;5004790;28;20095;-87
2021/06/06 08:08:05;;;;;;;24.25;21.73;;;17.10;81.00;;;;;;5004817;28;20051;-87
2021/06/06 08:10:32;;;;;;;22.92;20.42;;;17.20;81.00;;;;;;4988679;28;20143;-87
2021/06/06 08:12:57;;;;;;;22.05;19.73;;;17.20;81.00;;;;;;5004969;28;20140;-87
2021/06/06 08:15:24;;;;;;;21.27;19.08;;;17.20;80.90;;;;;;4970849;28;20046;-89
2021/06/06 08:17:53;;;;;;;21.40;19.15;;;17.20;80.80;;;;;;4988610;28;20487;-87
2021/06/06 08:20:29;;;;;;;20.42;18.33;;;17.20;80.70;;;;;;4993329;28;20151;-86
2021/06/06 08:22:55;;;;;;;21.45;19.20;;;17.20;80.60;;;;;;4991936;28;20120;-85
2021/06/06 08:25:21;;;;;;;20.08;17.98;;;17.20;80.70;;;;;;5007096;28;20045;-83
2021/06/06 08:27:48;;;;;;;19.00;16.98;;;17.20;80.70;;;;;;5007067;28;20049;-87
2021/06/06 08:30:24;;;;;;;18.75;16.35;;;17.20;80.70;;;;;;4991618;28;20478;-89
2021/06/06 08:32:51;;;;;;;18.75;16.75;;;17.20;80.60;;;;;;5008071;28;20045;-88
2021/06/06 08:35:17;;;;;;;20.85;16.63;;;17.30;80.70;;;;;;5023170;28;20501;-85
2021/06/06 08:37:44;;;;;;;19.33;15.95;;;17.30;80.70;;;;;;5023191;28;20049;-84
2021/06/06 08:40:10;;;;;;;16.85;14.65;;;17.30;80.50;;;;;;5023480;28;20463;-87
2021/06/06 08:42:40;;;;;;;16.45;14.57;;;17.30;80.40;;;;;;5006904;28;20139;-87
2021/06/06 08:45:08;;;;;;;16.13;14.05;;;17.40;80.40;;;;;;4990743;28;20049;-86
2021/06/06 08:47:35;;;;;;;14.93;13.00;;;17.50;80.40;;;;;;5022989;28;20057;-86
2021/06/06 08:50:05;;;;;;;14.95;13.45;;;17.50;80.20;;;;;;5006987;28;20459;-86
2021/06/06 08:52:41;;;;;;;13.52;12.13;;;17.50;80.20;;;;;;5006370;28;20073;-87
2021/06/06 08:55:19;;;;;;;13.27;11.88;;;17.60;79.90;;;;;;5007979;28;20119;-86
2021/06/06 08:57:50;;;;;;;14.20;12.73;;;17.70;79.90;;;;;;4991114;28;20061;-85
2021/06/06 09:00:22;;;;;;;14.82;12.65;;;17.80;79.80;;;;;;5007190;28;20041;-87
2021/06/06 09:02:49;;;;;;;15.80;13.98;;;17.80;79.50;;;;;;5039903;28;20046;-83
2021/06/06 09:05:42;;;;;;;14.52;13.02;;;17.80;79.30;;;;;;5022397;28;20049;-86
2021/06/06 09:08:13;;;;;;;;;;;17.80;78.90;;;;;;5020491;28;20552;-86
2021/06/06 09:10:42;;;;;;;18.95;14.45;;;17.80;79.10;;;;;;5022545;28;19921;-88
2021/06/06 09:13:09;;;;;;;15.93;14.18;;;17.80;79.20;;;;;;5007114;28;20037;-89
2021/06/06 09:15:35;;;;;;;16.85;14.68;;;17.80;79.90;;;;;;5004193;28;20146;-88
2021/06/06 09:18:14;;;;;;;17.20;15.40;;;17.80;79.10;;;;;;5022456;28;20538;-87
2021/06/06 09:20:41;;;;;;;16.65;14.95;;;17.80;79.10;;;;;;5007518;28;20056;-87
2021/06/06 09:23:36;;;;;;;19.58;16.08;;;17.80;79.20;;;;;;5006284;28;20050;-87
2021/06/06 09:26:05;;;;;;;19.52;16.73;;;17.80;79.20;;;;;;5002267;28;20145;-85
2021/06/06 09:28:32;;;;;;;19.85;16.83;;;17.80;79.30;;;;;;5038640;28;20202;-85
2021/06/06 09:31:04;;;;;;;19.75;16.77;;;17.80;79.20;;;;;;5021660;28;20060;-88
2021/06/06 09:33:32;;;;;;;;;;;17.80;79.10;;;;;;5022019;28;20041;-88
2021/06/06 09:36:04;;;;;;;18.30;16.17;;;17.80;79.00;;;;;;5004884;28;20352;-86
2021/06/06 09:38:30;;;;;;;18.65;16.70;;;17.80;79.10;;;;;;5022082;28;20045;-85
2021/06/06 09:40:56;;;;;;;21.15;17.30;;;17.80;79.10;;;;;;5038729;28;20451;-86
2021/06/06 09:43:30;;;;;;;23.42;18.70;;;17.80;79.10;;;;;;5021274;28;20037;-87
2021/06/06 09:46:08;;;;;;;21.80;19.25;;;17.80;79.00;;;;;;5020767;28;20049;-85
2021/06/06 09:48:39;;;;;;;20.20;17.92;;;17.80;79.00;;;;;;5020818;28;20071;-87
2021/06/06 09:51:29;;;;;;;20.50;18.27;;;17.80;79.10;;;;;;5006393;28;20054;-85
2021/06/06 09:54:07;;;;;;;19.67;17.60;;;17.80;79.00;;;;;;4994608;28;20136;-85
2021/06/06 09:56:34;;;;;;;20.48;18.30;;;17.90;79.10;;;;;;5005926;28;20045;-86
2021/06/06 09:59:11;;;;;;;20.02;17.92;;;17.90;79.10;;;;;;5005004;28;20080;-85
2021/06/06 10:01:37;;;;;;;22.75;18.95;;;17.90;78.90;;;;;;5004502;28;20501;-86
2021/06/06 10:04:17;;;;;;;20.52;18.33;;;17.90;78.90;;;;;;4989237;28;20053;-85
2021/06/06 10:06:43;;;;;;;20.63;18.55;;;17.90;78.80;;;;;;5021203;28;20049;-87
2021/06/06 10:09:12;;;;;;;21.05;18.88;;;17.90;78.80;;;;;;5004237;28;20077;-84
2021/06/06 10:12:02;;;;;;;21.58;18.33;;;17.90;78.70;;;;;;5020259;28;20080;-86
2021/06/06 10:14:43;;;;;;;20.05;17.52;;;17.90;78.70;;;;;;5021280;28;20077;-85
2021/06/06 10:17:11;;;;;;;20.73;18.50;;;17.90;78.70;;;;;;5005494;28;20128;-87
2021/06/06 10:19:45;;;;;;;20.45;17.98;;;17.90;78.70;;;;;;5004586;28;20054;-86
2021/06/06 10:22:30;;;;;;;20.20;16.92;;;17.90;78.50;;;;;;5021214;28;20077;-86
2021/06/06 10:25:06;;;;;;;19.83;17.80;;;17.90;78.40;;;;;;5004362;28;20049;-86
2021/06/06 10:27:41;;;;;;;20.77;18.30;;;17.90;78.40;;;;;;5006749;28;20050;-89
2021/06/06 10:30:17;;;;;;;21.02;18.95;;;18.00;78.40;;;;;;4989367;28;20041;-85
2021/06/06 10:32:46;;;;;;;19.42;17.33;;;17.90;79.10;;;;;;5005036;28;20152;-84
2021/06/06 10:35:14;;;;;;;18.52;16.63;;;17.90;78.40;;;;;;5021723;28;20049;-87
2021/06/06 10:37:45;;;;;;;21.52;17.92;;;18.00;78.50;;;;;;5020538;28;20083;-85
2021/06/06 10:40:39;;;;;;;19.17;17.10;;;18.00;78.50;;;;;;5021513;28;20041;-87
2021/06/06 10:43:12;;;;;;;19.92;16.65;;;18.00;78.20;;;;;;4991693;28;20052;-86
2021/06/06 10:45:59;;;;;;;18.90;16.80;;;18.00;78.30;;;;;;4989898;28;20069;-88
2021/06/06 10:48:27;;;;;;;19.10;17.13;;;18.00;78.00;;;;;;5005601;28;20045;-87
2021/06/06 10:51:05;;;;;;;19.17;16.90;;;18.10;78.10;;;;;;5004997;28;20041;-84
2021/06/06 10:53:31;;;;;;;18.75;16.75;;;18.10;78.00;;;;;;4990398;28;20080;-86
2021/06/06 10:56:04;;;;;;;20.02;16.83;;;18.10;78.00;;;;;;5004545;28;20042;-87
2021/06/06 10:58:44;;;;;;;19.70;17.38;;;18.10;77.80;;;;;;5040330;28;20363;-85
2021/06/06 11:01:19;;;;;;;19.75;17.58;;;18.10;77.70;;;;;;5009189;28;20069;-89
2021/06/06 11:03:54;;;;;;;21.10;19.02;;;18.10;77.70;;;;;;5024354;28;20041;-86
2021/06/06 11:06:24;;;;;;;21.33;19.02;;;18.10;77.70;;;;;;5009218;28;20269;-86
2021/06/06 11:08:50;;;;;;;21.67;18.30;;;18.10;77.70;;;;;;5009735;28;20045;-87
2021/06/06 11:11:18;;;;;;;22.02;19.63;;;18.10;77.70;;;;;;5024244;28;20041;-86
2021/06/06 11:13:46;;;;;;;21.83;18.42;;;18.10;77.70;;;;;;5007349;28;20049;-86
2021/06/06 11:16:20;;;;;;;21.85;19.33;;;18.10;77.70;;;;;;5007465;28;20057;-85
2021/06/06 11:18:55;;;;;;;23.38;20.02;;;18.10;77.70;;;;;;5023432;28;20098;-87
2021/06/06 11:21:45;;;;;;;23.08;20.25;;;18.20;77.70;;;;;;5007746;28;20077;-86
2021/06/06 11:24:39;;;;;;;23.77;20.55;;;18.10;77.70;;;;;;5007672;28;20068;-86
2021/06/06 11:27:11;;;;;;;21.90;19.58;;;18.20;77.70;;;;;;5022225;28;20045;-84
2021/06/06 11:29:44;;;;;;;27.25;20.60;;;18.20;77.60;;;;;;5021415;28;20113;-83
2021/06/06 11:32:16;;;;;;;23.08;20.40;;;18.20;77.50;;;;;;5022207;28;20478;-86
2021/06/06 11:35:09;;;;;;;26.33;22.23;;;18.20;77.50;;;;;;5023358;28;20459;-83
2021/06/06 11:37:42;;;;;;;25.25;20.70;;;18.20;77.40;;;;;;5000849;28;20382;-85
2021/06/06 11:40:41;;;;;;;22.85;20.50;;;18.20;77.40;;;;;;5008331;28;20048;-84
2021/06/06 11:43:32;;;;;;;23.52;21.02;;;18.20;77.40;;;;;;5023068;28;20794;-85
2021/06/06 11:46:33;;;;;;;25.08;22.38;;;18.20;77.40;;;;;;5022729;28;20148;-84
2021/06/06 11:49:28;;;;;;;26.92;22.95;;;18.20;77.20;;;;;;5007841;28;20099;-88
2021/06/06 11:51:55;;;;;;;23.25;20.52;;;18.20;77.40;;;;;;5010170;28;20057;-87
2021/06/06 11:54:25;;;;;;;26.63;21.50;;;18.20;77.40;;;;;;5007199;28;20095;-89
2021/06/06 11:56:52;;;;;;;27.05;20.73;;;18.20;77.40;;;;;;5022893;28;20054;-86
2021/06/06 11:59:32;;;;;;;28.13;22.67;;;18.20;77.50;;;;;;5006803;28;20115;-83
2021/06/06 12:02:00;;;;;;;25.17;21.63;;;18.20;77.50;;;;;;5008187;28;20045;-85
2021/06/06 12:04:29;;;;;;;24.83;21.98;;;18.20;77.60;;;;;;5008216;28;20124;-88
2021/06/06 12:06:54;;;;;;;28.45;21.67;;;18.20;77.60;;;;;;5006308;28;20085;-84
2021/06/06 12:09:26;;;;;;;23.67;21.05;;;18.10;77.70;;;;;;5022127;28;20058;-88
2021/06/06 12:11:53;;;;;;;24.45;21.90;;;18.20;77.80;;;;;;5007280;28;20038;-88
2021/06/06 12:14:25;;;;;;;29.40;23.58;;;18.20;77.70;;;;;;4990205;28;20060;-87
2021/06/06 12:16:54;;;;;;;24.33;20.90;;;18.10;77.60;;;;;;4992252;28;20057;-86
2021/06/06 12:19:25;;;;;;;25.77;21.60;;;18.10;77.70;;;;;;5039470;28;20081;-86
2021/06/06 12:22:05;;;;;;;25.08;21.88;;;18.20;77.70;;;;;;5006546;28;20057;-86
2021/06/06 12:24:31;;;;;;;26.60;21.30;;;18.20;77.80;;;;;;5006272;28;20048;-87
2021/06/06 12:27:04;;;;;;;23.40;20.90;;;18.20;77.70;;;;;;5021851;28;20046;-87
2021/06/06 12:29:33;;;;;;;23.15;19.90;;;18.30;77.70;;;;;;5021880;28;20088;-86
2021/06/06 12:32:13;;;;;;;26.10;21.15;;;18.30;77.60;;;;;;5005200;28;20045;-86
2021/06/06 12:34:41;;;;;;;24.13;21.13;;;18.40;77.50;;;;;;5007856;28;20041;-86
2021/06/06 12:37:10;;;;;;;23.77;21.05;;;18.40;77.50;;;;;;5005865;28;20045;-87
2021/06/06 12:39:40;;;;;;;22.10;19.75;;;18.40;77.20;;;;;;5006555;28;20037;-86
2021/06/06 12:42:06;;;;;;;19.90;17.80;;;18.40;77.10;;;;;;4989527;28;20065;-86
2021/06/06 12:44:54;;;;;;;22.10;18.23;;;18.40;77.10;;;;;;4998281;28;20073;-85